Terminal Aerodrome Forecast
Issued by NWS

Home | Current Version | Previous Version | Text Only | Print | Product List | Glossary On
Versions: 1 2 3 4 5 6 7 8 9 10 11 12 13 14 15 16 17 18 19
000
FTUS45 KCYS 201120
TAFAIA
TAF
KAIA 201120Z 2012/2112 30009KT P6SM BKN100
     FM201600 28015G22KT P6SM FEW100
     FM202000 22015G24KT P6SM SKC
     FM210000 16015G22KT P6SM SCT100=

USA.gov is the U.S. government's official web portal to all federal, state and local government web resources and services.